Time;durP1;ratioP1;P1;durP2;ratioP2;P2;SDS_P1;SDS_P2;PMS_P1;PMS_P2;Temp;Humidity;BMP_temperature;BMP_pressure;BME280_temperature;BME280_humidity;BME280_pressure;Samples;Min_cycle;Max_cycle;Signal;HPM_P1;HPM_P2
2021/06/01 00:01:21;;;;;;;5.10;2.37;;;;;;;10.31;64.00;101423.67;128560;1101;62171;-78
2021/06/01 00:03:48;;;;;;;8.03;1.90;;;;;;;10.28;64.74;101419.46;128558;1101;62016;-78
2021/06/01 00:06:15;;;;;;;4.13;1.37;;;;;;;10.26;64.60;101416.13;128356;1104;61923;-78
2021/06/01 00:08:42;;;;;;;6.43;2.13;;;;;;;10.25;65.49;101429.56;128579;1101;62406;-78
2021/06/01 00:11:11;;;;;;;6.57;1.97;;;;;;;10.21;65.06;101427.20;128574;1101;62861;-78
2021/06/01 00:13:39;;;;;;;7.23;1.83;;;;;;;10.20;65.62;101424.73;128558;1101;62020;-78
2021/06/01 00:16:08;;;;;;;3.33;2.10;;;;;;;10.18;66.08;101419.58;128574;1101;62024;-79
2021/06/01 00:18:36;;;;;;;4.17;1.90;;;;;;;10.14;66.24;101417.39;128374;1104;62436;-78
2021/06/01 00:21:05;;;;;;;3.63;1.63;;;;;;;10.11;66.19;101418.51;128401;1104;61983;-79
2021/06/01 00:23:36;;;;;;;6.23;2.00;;;;;;;10.07;65.92;101419.80;128584;1101;62038;-79
2021/06/01 00:26:05;;;;;;;4.60;1.90;;;;;;;10.03;66.40;101415.82;128353;1101;62273;-79
2021/06/01 00:28:34;;;;;;;4.67;2.13;;;;;;;9.99;66.59;101419.77;128568;1101;62078;-79
2021/06/01 00:31:02;;;;;;;5.00;1.73;;;;;;;9.94;66.85;101416.72;128379;1104;61983;-78
2021/06/01 00:33:30;;;;;;;3.33;1.97;;;;;;;9.89;67.03;101414.53;128575;1101;62582;-79
2021/06/01 00:35:57;;;;;;;4.93;2.53;;;;;;;9.83;66.83;101415.14;128387;1102;62986;-78
2021/06/01 00:38:31;;;;;;;4.73;1.80;;;;;;;9.78;67.12;101415.59;128537;1101;62083;-77
2021/06/01 00:41:00;;;;;;;8.40;1.93;;;;;;;9.77;67.69;101405.14;128593;1101;61993;-78
2021/06/01 00:43:29;;;;;;;6.07;1.87;;;;;;;9.76;67.98;101412.27;128351;1104;62148;-77
2021/06/01 00:45:56;;;;;;;3.37;1.60;;;;;;;9.76;68.06;101414.92;128357;1104;62616;-77
2021/06/01 00:48:23;;;;;;;5.07;1.53;;;;;;;9.75;69.56;101415.06;128385;1101;62798;-78
2021/06/01 00:50:50;;;;;;;7.03;2.30;;;;;;;9.72;69.55;101412.73;128333;1104;62546;-78
2021/06/01 00:53:18;;;;;;;12.17;2.53;;;;;;;9.70;69.13;101415.52;128377;1101;61978;-78
2021/06/01 00:55:45;;;;;;;12.10;2.20;;;;;;;9.67;69.60;101415.84;128549;1101;62079;-78
2021/06/01 00:58:14;;;;;;;8.03;2.00;;;;;;;9.64;68.81;101416.13;128320;1104;62048;-78
2021/06/01 01:03:11;;;;;;;9.90;2.00;;;;;;;9.60;68.74;101417.41;128519;1101;62399;-78
2021/06/01 01:05:40;;;;;;;10.90;2.13;;;;;;;9.57;69.12;101410.59;128386;1104;61979;-78
2021/06/01 01:11:06;;;;;;;9.40;2.20;;;;;;;9.49;70.23;101417.63;128530;1101;62878;-78
2021/06/01 01:13:56;;;;;;;5.77;2.23;;;;;;;9.44;70.23;101411.97;128347;1104;62920;-78
2021/06/01 01:16:26;;;;;;;6.87;1.93;;;;;;;9.37;70.34;101409.91;128519;1101;62213;-79
2021/06/01 01:19:12;;;;;;;7.27;2.50;;;;;;;9.34;70.51;101409.38;128620;1101;62274;-78
2021/06/01 01:21:47;;;;;;;7.17;2.00;;;;;;;9.31;70.56;101415.80;128558;1101;61961;-79
2021/06/01 01:24:17;;;;;;;12.53;2.03;;;;;;;9.29;70.89;101412.47;128610;1101;62056;-79
2021/06/01 01:26:59;;;;;;;4.63;1.70;;;;;;;9.21;71.11;101401.78;128589;1101;62067;-79
2021/06/01 01:29:50;;;;;;;5.70;1.93;;;;;;;9.22;71.24;101405.26;128359;1104;61916;-78
2021/06/01 01:32:25;;;;;;;4.27;2.23;;;;;;;9.24;70.97;101414.71;128303;1105;61969;-78
2021/06/01 01:34:57;;;;;;;6.53;2.08;;;;;;;9.24;70.88;101419.19;128382;1104;62061;-78
2021/06/01 01:37:26;;;;;;;7.10;2.27;;;;;;;9.24;71.38;101419.19;128583;1101;61997;-79
2021/06/01 01:39:58;;;;;;;4.60;2.03;;;;;;;9.22;71.71;101421.14;128601;1101;62187;-79
2021/06/01 01:42:30;;;;;;;5.67;3.13;;;;;;;9.18;71.22;101417.98;128504;1101;62115;-78
2021/06/01 01:44:58;;;;;;;5.97;2.17;;;;;;;9.14;71.62;101413.96;128533;1102;63080;-78
2021/06/01 01:50:06;;;;;;;4.17;1.90;;;;;;;9.04;71.99;101407.88;128531;1101;62068;-78
2021/06/01 01:52:41;;;;;;;4.70;1.90;;;;;;;9.02;72.26;101412.48;128353;1104;62108;-78
2021/06/01 01:55:11;;;;;;;7.67;2.10;;;;;;;8.98;72.16;101420.70;128542;1101;61732;-78
2021/06/01 01:57:43;;;;;;;3.67;1.80;;;;;;;8.97;72.36;101424.34;128334;1104;62096;-78
2021/06/01 02:00:12;;;;;;;4.13;1.77;;;;;;;8.93;71.91;101432.72;128548;1101;62417;-79
2021/06/01 02:02:40;;;;;;;9.53;3.13;;;;;;;8.88;72.29;101419.94;128417;1102;62039;-79
2021/06/01 02:05:09;;;;;;;4.27;2.10;;;;;;;8.87;72.52;101428.84;128579;1101;61981;-79
2021/06/01 02:07:36;;;;;;;6.13;2.07;;;;;;;8.82;72.72;101425.80;128397;1102;62083;-80
2021/06/01 02:10:07;;;;;;;5.63;2.40;;;;;;;8.78;73.11;101425.25;128452;1104;62032;-79
2021/06/01 02:12:34;;;;;;;5.40;1.87;;;;;;;8.75;73.27;101424.70;128560;1101;62169;-79
2021/06/01 02:15:01;;;;;;;3.93;1.90;;;;;;;8.72;73.29;101422.36;128412;1104;62115;-79
2021/06/01 02:17:28;;;;;;;4.50;2.10;;;;;;;8.70;73.42;101413.73;128567;1101;62953;-79
2021/06/01 02:19:55;;;;;;;8.03;2.10;;;;;;;8.68;73.61;101419.16;128402;1102;62112;-79
2021/06/01 02:25:28;;;;;;;4.07;1.80;;;;;;;8.66;73.88;101415.83;128414;1104;62091;-81
2021/06/01 02:28:07;;;;;;;5.47;2.20;;;;;;;8.65;73.85;101413.31;128479;1101;61934;-79
2021/06/01 02:30:43;;;;;;;3.67;1.90;;;;;;;8.64;74.65;101409.02;128469;1101;62810;-79
2021/06/01 02:33:10;;;;;;;12.37;2.30;;;;;;;8.62;74.51;101395.94;128309;1104;62090;-78
2021/06/01 02:35:40;;;;;;;4.07;1.90;;;;;;;8.59;74.52;101398.88;128527;1101;61920;-78
2021/06/01 02:38:09;;;;;;;4.53;1.77;;;;;;;8.57;74.70;101404.30;128334;1104;62208;-78
2021/06/01 02:40:38;;;;;;;3.50;2.17;;;;;;;8.54;74.54;101401.97;128359;1101;61376;-78
2021/06/01 02:43:10;;;;;;;6.23;2.30;;;;;;;8.51;74.64;101401.41;128387;1101;62806;-78
2021/06/01 02:45:43;;;;;;;3.90;1.97;;;;;;;8.49;75.50;101398.90;128559;1101;62144;-79
2021/06/01 02:48:13;;;;;;;3.47;1.97;;;;;;;8.48;75.59;101399.89;128560;1101;62069;-77
2021/06/01 02:50:42;;;;;;;4.60;2.30;;;;;;;8.46;75.27;101398.34;128316;1104;62128;-77
2021/06/01 02:53:11;;;;;;;3.10;2.20;;;;;;;8.45;75.77;101396.69;128334;1104;62240;-77
2021/06/01 02:55:40;;;;;;;7.70;2.57;;;;;;;8.44;75.83;101387.11;128336;1104;62453;-77
2021/06/01 02:58:09;;;;;;;3.13;1.77;;;;;;;8.44;75.65;101395.86;128349;1101;61978;-77
2021/06/01 03:00:38;;;;;;;4.27;1.80;;;;;;;8.42;76.02;101392.53;128494;1101;62455;-77
2021/06/01 03:03:07;;;;;;;4.87;2.00;;;;;;;8.40;76.33;101394.45;128364;1101;62161;-77
2021/06/01 03:05:34;;;;;;;4.90;2.20;;;;;;;8.33;76.24;101382.77;128390;1102;62022;-77
2021/06/01 03:08:21;;;;;;;4.43;1.93;;;;;;;8.32;76.22;101384.58;128365;1104;62888;-77
2021/06/01 03:10:48;;;;;;;4.83;1.80;;;;;;;8.29;76.09;101384.88;128321;1104;62209;-78
2021/06/01 03:13:15;;;;;;;3.33;1.90;;;;;;;8.27;75.96;101383.36;128535;1102;62042;-77
2021/06/01 03:15:42;;;;;;;5.87;1.70;;;;;;;8.23;76.14;101385.45;128508;1101;62005;-77
2021/06/01 03:18:09;;;;;;;9.00;2.30;;;;;;;8.20;76.02;101382.25;128566;1101;61996;-77
2021/06/01 03:20:36;;;;;;;4.43;2.20;;;;;;;8.16;76.01;101382.55;128529;1101;62048;-77
2021/06/01 03:23:03;;;;;;;3.90;2.27;;;;;;;8.15;76.42;101378.22;128350;1101;62364;-77
2021/06/01 03:25:30;;;;;;;3.93;1.90;;;;;;;8.16;76.78;101377.26;128524;1101;62033;-77
2021/06/01 03:27:57;;;;;;;9.40;1.90;;;;;;;8.15;76.39;101377.39;128599;1101;61997;-78
2021/06/01 03:30:25;;;;;;;4.90;2.17;;;;;;;8.14;76.23;101378.38;128395;1102;62116;-78
2021/06/01 03:32:55;;;;;;;4.83;2.50;;;;;;;8.12;76.21;101378.52;128580;1101;62860;-78
2021/06/01 03:35:24;;;;;;;4.53;1.93;;;;;;;8.13;76.43;101382.81;128354;1104;62663;-77
2021/06/01 03:37:51;;;;;;;3.30;1.90;;;;;;;8.17;76.52;101383.38;128525;1101;62417;-78
2021/06/01 03:40:18;;;;;;;5.37;1.53;;;;;;;8.21;76.78;101370.72;128620;1101;62068;-78
2021/06/01 03:42:45;;;;;;;2.87;1.80;;;;;;;8.26;77.00;101384.33;128359;1104;62319;-78
2021/06/01 03:45:13;;;;;;;5.17;2.07;;;;;;;8.30;76.28;101383.89;128403;1102;63585;-78
2021/06/01 03:47:41;;;;;;;4.57;2.10;;;;;;;8.37;76.40;101386.79;128567;1101;62006;-78
2021/06/01 03:50:09;;;;;;;3.73;2.17;;;;;;;8.41;76.31;101390.02;128536;1101;61974;-77
2021/06/01 03:52:36;;;;;;;5.37;2.97;;;;;;;8.43;75.98;101382.78;128531;1101;62002;-77
2021/06/01 03:55:03;;;;;;;9.53;2.10;;;;;;;8.45;75.96;101380.83;128384;1104;62024;-77
2021/06/01 03:57:31;;;;;;;5.83;2.07;;;;;;;8.48;76.29;101384.03;128577;1102;62169;-77
2021/06/01 03:59:58;;;;;;;3.27;2.30;;;;;;;8.54;75.96;101380.80;128326;1104;62335;-76
2021/06/01 04:02:25;;;;;;;5.03;2.40;;;;;;;8.61;76.34;101382.84;128356;1104;62670;-77
2021/06/01 04:04:52;;;;;;;8.40;2.20;;;;;;;8.71;76.07;101375.71;128543;1101;61961;-78
2021/06/01 04:07:19;;;;;;;5.27;1.83;;;;;;;8.81;76.37;101371.21;128350;1102;61931;-78
2021/06/01 04:09:46;;;;;;;2.87;1.80;;;;;;;8.92;76.27;101370.19;128601;1101;62065;-78
2021/06/01 04:12:13;;;;;;;5.30;1.83;;;;;;;9.03;76.06;101377.09;128349;1104;62172;-78
2021/06/01 04:14:40;;;;;;;5.63;2.43;;;;;;;9.13;75.72;101369.92;128554;1101;62004;-78
2021/06/01 04:17:07;;;;;;;7.50;2.33;;;;;;;9.23;76.19;101372.53;128352;1104;62180;-77
2021/06/01 04:19:34;;;;;;;4.50;2.40;;;;;;;9.31;75.80;101375.27;128593;1101;62622;-77
2021/06/01 04:22:02;;;;;;;4.43;2.23;;;;;;;9.41;75.03;101376.00;128558;1101;62072;-77
2021/06/01 04:24:29;;;;;;;5.63;2.60;;;;;;;9.51;75.59;101370.64;128495;1101;62045;-77
2021/06/01 04:27:00;;;;;;;4.60;2.20;;;;;;;9.61;74.82;101374.05;128567;1102;61959;-77
2021/06/01 04:29:30;;;;;;;4.43;2.13;;;;;;;9.72;75.49;101370.34;128548;1101;62449;-77
2021/06/01 04:31:57;;;;;;;5.30;2.67;;;;;;;9.85;74.77;101375.25;128546;1101;61943;-76
2021/06/01 04:34:24;;;;;;;4.47;2.40;;;;;;;10.00;74.61;101374.53;128355;1104;62712;-76
2021/06/01 04:36:54;;;;;;;5.67;2.67;;;;;;;10.12;74.20;101367.17;128552;1101;62092;-76
2021/06/01 04:39:21;;;;;;;5.70;2.10;;;;;;;10.26;73.52;101372.88;128540;1101;62361;-76
2021/06/01 04:41:48;;;;;;;5.83;2.60;;;;;;;10.37;73.22;101372.64;128329;1104;61970;-76
2021/06/01 04:44:16;;;;;;;4.70;2.20;;;;;;;10.50;73.72;101375.72;128572;1101;61425;-76
2021/06/01 04:46:43;;;;;;;5.60;2.73;;;;;;;10.64;73.20;101371.63;128364;1102;62127;-76
2021/06/01 04:49:11;;;;;;;4.27;2.40;;;;;;;10.76;72.80;101365.05;128547;1101;62821;-77
2021/06/01 04:51:40;;;;;;;6.20;3.07;;;;;;;10.87;72.01;101369.23;128515;1101;62189;-76
2021/06/01 04:54:07;;;;;;;5.57;2.60;;;;;;;10.97;72.36;101364.64;128598;1101;62200;-76
2021/06/01 04:56:35;;;;;;;5.87;2.60;;;;;;;11.06;71.48;101372.63;128530;1101;61880;-76
2021/06/01 04:59:02;;;;;;;6.07;2.60;;;;;;;11.15;71.74;101375.13;128554;1101;62268;-76
2021/06/01 05:01:31;;;;;;;4.40;2.23;;;;;;;11.24;71.27;101368.02;128558;1101;61955;-76
2021/06/01 05:03:58;;;;;;;5.50;2.87;;;;;;;11.36;70.89;101365.89;128285;1104;62188;-76
2021/06/01 05:06:25;;;;;;;3.43;2.00;;;;;;;11.47;71.08;101370.88;128612;1101;62084;-76
2021/06/01 05:08:52;;;;;;;3.37;2.10;;;;;;;11.58;69.80;101370.58;128540;1101;62091;-76
2021/06/01 05:11:20;;;;;;;4.93;2.33;;;;;;;11.74;69.57;101369.73;128322;1104;62798;-76
2021/06/01 05:13:53;;;;;;;5.00;2.60;;;;;;;11.88;68.52;101376.27;128520;1101;62349;-80
2021/06/01 05:16:21;;;;;;;3.90;2.43;;;;;;;12.02;68.32;101369.43;128436;1104;63148;-82
2021/06/01 05:18:49;;;;;;;3.23;1.80;;;;;;;12.16;67.50;101387.38;128388;1105;61338;-82
2021/06/01 05:21:18;;;;;;;4.53;2.30;;;;;;;12.29;67.00;101372.73;128410;1102;62037;-82
2021/06/01 05:23:45;;;;;;;6.60;2.30;;;;;;;12.43;66.63;101379.98;128360;1101;63094;-80
2021/06/01 05:26:12;;;;;;;3.53;2.10;;;;;;;12.57;66.29;101379.29;128549;1101;62095;-76
2021/06/01 05:28:39;;;;;;;7.53;2.30;;;;;;;12.70;65.77;101372.59;128359;1102;62362;-83
2021/06/01 05:33:56;;;;;;;;;;;;;;;12.95;64.89;101371.48;128603;1101;62029;-78
2021/06/01 05:36:24;;;;;;;4.07;1.80;;;;;;;13.07;65.14;101377.27;128392;1104;62753;-78
2021/06/01 05:38:51;;;;;;;5.10;2.07;;;;;;;13.20;64.79;101374.86;128527;1101;62265;-78
2021/06/01 05:41:19;;;;;;;3.37;1.80;;;;;;;13.34;64.01;101372.47;128572;1101;62048;-79
2021/06/01 05:43:46;;;;;;;3.40;1.97;;;;;;;13.48;63.40;101382.38;128530;1101;61979;-79
2021/06/01 05:46:13;;;;;;;4.87;2.07;;;;;;;13.59;63.09;101376.63;128329;1104;62055;-79
2021/06/01 05:48:40;;;;;;;4.10;2.17;;;;;;;13.74;63.59;101379.34;128315;1104;62803;-78
2021/06/01 05:51:07;;;;;;;4.77;2.57;;;;;;;13.83;63.50;101378.28;128333;1104;62020;-78
2021/06/01 05:53:34;;;;;;;3.37;1.67;;;;;;;13.97;62.88;101370.49;128349;1104;62270;-78
2021/06/01 05:56:01;;;;;;;3.47;2.30;;;;;;;14.13;62.21;101373.02;128571;1101;62040;-78
2021/06/01 05:58:32;;;;;;;2.97;1.77;;;;;;;14.30;61.94;101372.83;128329;1104;62013;-78
2021/06/01 06:00:59;;;;;;;5.70;2.53;;;;;;;14.45;62.16;101376.33;128349;1104;62919;-78
2021/06/01 06:03:26;;;;;;;2.77;1.93;;;;;;;14.57;62.25;101372.23;128488;1101;62103;-78
2021/06/01 06:05:53;;;;;;;6.10;2.30;;;;;;;14.68;61.99;101371.78;128539;1101;61412;-77
2021/06/01 06:08:21;;;;;;;4.00;2.10;;;;;;;14.82;61.92;101372.77;128538;1101;62583;-78
2021/06/01 06:10:49;;;;;;;3.80;2.00;;;;;;;14.98;60.85;101374.41;128390;1101;62091;-78
2021/06/01 06:13:17;;;;;;;3.57;1.70;;;;;;;15.15;58.24;101376.84;128400;1102;62204;-78
2021/06/01 06:15:44;;;;;;;3.90;1.40;;;;;;;15.27;56.98;101380.69;128566;1101;62210;-78
2021/06/01 06:18:22;;;;;;;2.80;1.80;;;;;;;15.46;56.35;101380.06;128673;1101;62231;-79
2021/06/01 06:20:49;;;;;;;5.40;2.07;;;;;;;15.66;56.03;101382.94;128431;1104;61943;-78
2021/06/01 06:23:17;;;;;;;5.57;2.07;;;;;;;15.81;53.01;101382.91;128714;1101;61927;-78
2021/06/01 06:25:44;;;;;;;3.63;1.67;;;;;;;16.00;52.89;101391.27;128616;1101;63188;-78
2021/06/01 06:28:11;;;;;;;4.50;2.00;;;;;;;16.20;52.66;101386.08;128699;1101;62000;-78
2021/06/01 06:30:38;;;;;;;3.27;1.90;;;;;;;16.41;51.86;101391.38;128404;1104;62050;-78
2021/06/01 06:33:05;;;;;;;2.80;1.57;;;;;;;16.59;51.95;101390.84;128609;1101;61976;-78
2021/06/01 06:35:32;;;;;;;6.90;2.20;;;;;;;16.73;51.91;101378.36;128641;1101;61952;-77
2021/06/01 06:37:59;;;;;;;3.57;2.13;;;;;;;16.89;52.26;101390.61;128717;1101;62890;-76
2021/06/01 06:40:26;;;;;;;3.77;2.03;;;;;;;17.01;51.48;101383.66;128350;1104;62085;-77
2021/06/01 06:42:53;;;;;;;3.83;1.70;;;;;;;17.15;50.39;101379.19;128702;1101;62027;-77
2021/06/01 06:45:23;;;;;;;6.33;1.90;;;;;;;17.24;49.90;101379.83;128415;1104;61989;-77
2021/06/01 06:50:22;;;;;;;6.00;2.40;;;;;;;17.42;50.85;101380.05;128696;1101;62033;-78
2021/06/01 06:52:50;;;;;;;3.67;1.60;;;;;;;17.52;48.90;101385.03;128675;1101;61774;-77
2021/06/01 06:55:18;;;;;;;6.60;2.63;;;;;;;17.61;49.15;101382.98;128717;1101;61852;-77
2021/06/01 06:57:45;;;;;;;3.55;1.70;;;;;;;17.70;47.86;101387.10;128735;1101;61975;-77
2021/06/01 07:00:15;;;;;;;5.93;2.30;;;;;;;17.82;47.62;101379.28;128417;1101;62284;-79
2021/06/01 07:02:42;;;;;;;3.67;2.20;;;;;;;18.00;46.01;101375.98;128698;1101;62023;-79
2021/06/01 07:05:12;;;;;;;4.50;1.83;;;;;;;18.18;47.17;101373.50;128637;1101;62169;-78
2021/06/01 07:07:40;;;;;;;4.10;2.30;;;;;;;18.31;46.31;101365.41;128423;1102;62085;-77
2021/06/01 07:10:10;;;;;;;4.03;1.73;;;;;;;18.48;46.67;101368.48;128626;1101;62371;-77
2021/06/01 07:12:40;;;;;;;2.77;1.80;;;;;;;18.55;46.01;101368.45;128566;1101;62642;-77
2021/06/01 07:15:12;;;;;;;3.20;1.70;;;;;;;18.61;45.86;101364.11;128642;1101;61979;-78
2021/06/01 07:17:44;;;;;;;5.30;2.27;;;;;;;18.71;46.19;101359.93;128660;1101;62194;-77
2021/06/01 07:20:14;;;;;;;2.60;1.53;;;;;;;18.85;46.47;101357.22;128693;1101;61980;-78
2021/06/01 07:22:42;;;;;;;4.63;1.73;;;;;;;19.03;46.52;101365.41;128398;1102;61955;-77
2021/06/01 07:25:10;;;;;;;2.80;2.00;;;;;;;19.21;47.50;101355.79;128577;1101;61990;-78
2021/06/01 07:27:38;;;;;;;4.27;1.80;;;;;;;19.35;48.05;101354.67;128620;1101;63142;-77
2021/06/01 07:30:06;;;;;;;5.10;1.90;;;;;;;19.43;48.09;101359.80;128381;1105;61969;-77
2021/06/01 07:32:34;;;;;;;3.50;1.73;;;;;;;19.54;47.87;101353.70;128413;1102;62109;-77
2021/06/01 07:35:03;;;;;;;3.80;1.80;;;;;;;19.73;48.19;101361.89;128447;1104;62898;-78
2021/06/01 07:37:31;;;;;;;3.67;2.37;;;;;;;19.83;46.86;101359.53;128660;1102;62073;-79
2021/06/01 07:39:58;;;;;;;4.27;2.03;;;;;;;19.95;47.35;101357.77;128430;1104;61998;-77
2021/06/01 07:42:25;;;;;;;3.13;1.97;;;;;;;20.10;46.46;101359.27;128671;1101;62067;-78
2021/06/01 07:44:52;;;;;;;3.67;1.40;;;;;;;20.12;46.05;101358.00;128449;1104;62075;-78
2021/06/01 07:47:19;;;;;;;4.50;1.67;;;;;;;20.18;46.13;101367.07;128433;1101;61985;-78
2021/06/01 07:49:47;;;;;;;4.03;1.83;;;;;;;20.27;46.33;101365.73;128438;1104;61850;-79
2021/06/01 07:52:14;;;;;;;3.47;2.00;;;;;;;20.39;45.73;101362.31;128526;1102;62023;-78
2021/06/01 07:54:41;;;;;;;3.37;1.70;;;;;;;20.48;45.18;101366.34;128645;1101;61974;-78
2021/06/01 07:57:08;;;;;;;5.93;1.90;;;;;;;20.57;45.19;101367.69;128665;1101;62013;-79
2021/06/01 07:59:35;;;;;;;3.47;1.83;;;;;;;20.76;45.29;101360.45;128710;1101;62006;-79
2021/06/01 08:02:02;;;;;;;4.83;1.93;;;;;;;20.93;44.31;101357.95;128425;1104;62139;-79
2021/06/01 08:04:29;;;;;;;5.37;1.90;;;;;;;21.08;42.82;101358.39;128423;1104;62848;-78
2021/06/01 08:07:02;;;;;;;2.33;1.47;;;;;;;21.23;41.27;101349.88;128673;1101;62164;-78
2021/06/01 08:09:29;;;;;;;2.47;1.83;;;;;;;21.38;41.21;101346.75;128592;1101;61987;-78
2021/06/01 08:11:56;;;;;;;5.27;1.90;;;;;;;21.53;41.06;101347.16;128620;1101;62144;-77
2021/06/01 08:14:23;;;;;;;4.40;2.23;;;;;;;21.66;40.94;101340.72;128424;1104;61962;-77
2021/06/01 08:16:51;;;;;;;2.60;2.07;;;;;;;21.76;40.54;101340.13;128401;1104;61988;-76
2021/06/01 08:19:25;;;;;;;4.50;2.17;;;;;;;21.88;39.90;101340.15;128656;1101;62334;-76
2021/06/01 08:21:59;;;;;;;4.48;1.90;;;;;;;21.98;40.25;101338.50;128391;1105;61990;-76
2021/06/01 08:24:26;;;;;;;7.83;2.77;;;;;;;22.02;39.89;101333.46;128684;1101;61936;-77
2021/06/01 08:26:53;;;;;;;5.37;1.90;;;;;;;22.05;39.81;101332.16;128610;1101;61972;-76
2021/06/01 08:29:21;;;;;;;3.37;2.10;;;;;;;22.05;40.51;101332.98;128632;1101;62894;-75
2021/06/01 08:31:48;;;;;;;6.80;2.20;;;;;;;22.13;40.80;101329.11;128631;1101;62096;-77
2021/06/01 08:34:16;;;;;;;5.83;2.40;;;;;;;22.28;40.88;101331.35;128424;1104;62032;-77
2021/06/01 08:36:43;;;;;;;3.73;1.90;;;;;;;22.22;40.84;101327.67;128450;1101;62023;-78
2021/06/01 08:39:11;;;;;;;3.70;2.20;;;;;;;22.21;40.97;101320.64;128425;1102;62127;-77
2021/06/01 08:41:41;;;;;;;3.87;2.03;;;;;;;22.28;41.96;101317.84;128425;1101;62069;-77
2021/06/01 08:44:12;;;;;;;5.37;2.43;;;;;;;22.39;41.44;101328.61;128683;1101;61857;-77
2021/06/01 08:46:39;;;;;;;5.17;3.50;;;;;;;22.50;41.04;101318.02;128698;1101;62032;-77
2021/06/01 08:49:07;;;;;;;3.43;1.70;;;;;;;22.62;41.20;101316.10;128366;1105;62071;-77
2021/06/01 08:51:35;;;;;;;3.97;2.00;;;;;;;22.62;41.73;101324.21;128636;1101;62127;-78
2021/06/01 08:54:02;;;;;;;6.63;2.80;;;;;;;22.63;40.92;101312.32;128426;1104;62161;-78
2021/06/01 08:56:29;;;;;;;5.97;2.00;;;;;;;22.72;41.75;101308.20;128620;1101;62178;-77
2021/06/01 08:58:56;;;;;;;4.03;2.40;;;;;;;22.83;40.37;101319.22;128675;1101;62391;-77
2021/06/01 09:01:23;;;;;;;6.90;2.53;;;;;;;22.87;40.56;101306.84;128464;1101;62286;-77
2021/06/01 09:03:58;;;;;;;2.57;1.57;;;;;;;23.00;40.58;101306.55;128412;1104;61981;-77
2021/06/01 09:06:34;;;;;;;4.48;1.73;;;;;;;23.08;40.45;101305.34;128679;1101;62277;-77
2021/06/01 09:12:04;;;;;;;20.37;12.30;;;;;;;23.22;40.23;101303.16;128434;1104;62014;-79
2021/06/01 09:22:58;;;;;;;4.47;3.20;;;;;;;23.89;38.68;101297.75;128496;1101;62245;-77
2021/06/01 09:25:46;;;;;;;6.27;2.37;;;;;;;24.04;37.93;101299.05;128682;1101;62438;-78
2021/06/01 09:28:15;;;;;;;4.63;2.07;;;;;;;24.09;38.08;101296.39;128516;1101;61943;-78
2021/06/01 09:30:46;;;;;;;4.50;2.90;;;;;;;24.15;38.32;101296.20;128698;1101;61993;-78
2021/06/01 09:33:16;;;;;;;4.93;3.00;;;;;;;24.22;37.17;101290.59;128395;1104;62336;-77
2021/06/01 09:35:57;;;;;;;4.20;2.40;;;;;;;24.25;38.15;101281.13;128632;1101;61981;-77
2021/06/01 09:38:29;;;;;;;5.63;2.93;;;;;;;24.27;37.26;101282.54;128669;1101;62311;-77
2021/06/01 09:41:07;;;;;;;3.30;2.30;;;;;;;24.39;37.04;101276.97;128418;1104;61985;-77
2021/06/01 09:43:47;;;;;;;4.90;3.13;;;;;;;24.38;37.57;101283.48;128672;1101;62126;-77
2021/06/01 09:46:36;;;;;;;4.60;2.23;;;;;;;24.38;36.74;101273.45;128689;1101;62018;-77
2021/06/01 09:49:13;;;;;;;5.23;2.40;;;;;;;24.49;37.71;101279.84;128366;1101;62106;-77
2021/06/01 09:51:47;;;;;;;4.80;2.40;;;;;;;24.59;36.65;101279.14;128627;1101;62074;-77
2021/06/01 09:54:46;;;;;;;3.58;2.30;;;;;;;24.57;35.16;101273.16;128412;1101;62062;-77
2021/06/01 09:57:22;;;;;;;3.73;2.30;;;;;;;24.39;35.11;101261.52;128431;1102;62320;-77
2021/06/01 10:00:25;;;;;;;5.23;3.33;;;;;;;24.43;35.62;101267.26;128406;1105;61998;-77
2021/06/01 10:03:03;;;;;;;3.80;1.90;;;;;;;24.37;34.17;101266.37;128657;1101;62282;-77
2021/06/01 10:05:33;;;;;;;6.97;2.50;;;;;;;24.45;35.84;101267.02;128704;1101;62062;-77
2021/06/01 10:08:15;;;;;;;2.70;2.10;;;;;;;24.62;36.10;101259.64;128645;1101;63198;-77
2021/06/01 10:10:55;;;;;;;6.33;3.70;;;;;;;24.82;36.41;101262.56;128452;1104;62009;-77
2021/06/01 10:13:24;;;;;;;4.60;2.40;;;;;;;24.96;36.39;101259.42;128664;1101;61960;-77
2021/06/01 10:15:54;;;;;;;4.23;2.03;;;;;;;25.05;36.16;101249.73;128457;1104;62006;-76
2021/06/01 10:18:22;;;;;;;3.03;1.90;;;;;;;25.11;35.98;101248.70;128387;1104;62024;-76
2021/06/01 10:20:51;;;;;;;4.60;2.37;;;;;;;25.14;35.63;101248.20;128440;1102;62266;-76
2021/06/01 10:23:24;;;;;;;4.00;2.00;;;;;;;25.33;35.05;101242.38;128451;1101;62997;-77
2021/06/01 10:25:51;;;;;;;5.63;2.70;;;;;;;25.39;33.79;101238.62;128393;1104;62076;-75
2021/06/01 10:28:25;;;;;;;4.23;2.40;;;;;;;25.45;35.33;101243.01;128594;1101;62108;-75
2021/06/01 10:30:54;;;;;;;3.50;1.57;;;;;;;25.48;34.31;101241.66;128406;1101;62183;-76
2021/06/01 10:33:22;;;;;;;4.97;2.43;;;;;;;25.51;33.29;101231.10;128720;1101;62007;-75
2021/06/01 10:52:12;;;;;;;2.43;1.80;;;;;;;26.10;31.11;101212.95;128731;1101;62857;-77
2021/06/01 10:54:40;;;;;;;5.40;1.93;;;;;;;26.26;30.96;101214.63;128367;1104;61907;-76
2021/06/01 10:57:08;;;;;;;4.90;1.77;;;;;;;26.41;31.77;101211.94;128721;1101;62022;-76
2021/06/01 11:02:25;;;;;;;4.53;1.87;;;;;;;26.60;29.08;101209.55;128688;1101;62013;-76
2021/06/01 11:05:01;;;;;;;3.37;2.27;;;;;;;26.81;30.03;101210.39;128427;1102;62828;-76
2021/06/01 11:07:50;;;;;;;2.40;1.70;;;;;;;26.97;28.71;101196.81;128404;1101;62427;-76
2021/06/01 11:10:36;;;;;;;3.23;1.80;;;;;;;26.91;29.18;101192.45;128672;1101;62168;-77
2021/06/01 11:13:05;;;;;;;5.50;1.83;;;;;;;26.85;28.48;101192.44;128344;1104;62014;-77
2021/06/01 11:15:35;;;;;;;3.47;2.00;;;;;;;26.59;29.43;101201.69;128375;1104;62023;-77
2021/06/01 11:18:24;;;;;;;3.40;1.73;;;;;;;26.47;31.47;101187.48;128421;1104;62989;-77
2021/06/01 11:21:07;;;;;;;3.40;1.80;;;;;;;26.37;30.28;101188.27;128643;1101;62312;-77
2021/06/01 11:35:29;;;;;;;4.20;1.73;;;;;;;27.21;29.20;101181.52;128430;1101;62770;-77
2021/06/01 11:43:12;;;;;;;2.73;1.93;;;;;;;27.04;29.34;101189.17;128411;1101;63134;-78
2021/06/01 11:45:47;;;;;;;2.80;1.47;;;;;;;27.09;29.94;101183.70;128442;1104;62247;-78
2021/06/01 11:51:22;;;;;;;2.30;1.50;;;;;;;27.19;28.57;101172.80;128299;1104;62169;-78
2021/06/01 11:53:56;;;;;;;2.83;1.80;;;;;;;27.32;29.09;101171.45;128051;1104;62227;-78
2021/06/01 11:56:42;;;;;;;2.50;1.80;;;;;;;27.45;29.36;101161.88;128446;1101;62053;-80
2021/06/01 12:02:04;;;;;;;3.90;1.60;;;;;;;27.96;27.63;101169.89;128561;1101;63246;-75
2021/06/01 12:18:45;;;;;;;2.97;1.90;;;;;;;29.76;24.88;101143.82;128395;1101;62457;-78
2021/06/01 12:21:35;;;;;;;3.33;1.67;;;;;;;29.94;25.29;101139.47;128368;1104;62012;-77
2021/06/01 12:24:07;;;;;;;3.20;2.07;;;;;;;30.33;25.15;101133.73;128528;1101;62064;-78
2021/06/01 12:26:46;;;;;;;2.80;1.60;;;;;;;30.46;24.10;101132.97;128395;1104;62854;-78
2021/06/01 12:32:11;;;;;;;4.03;1.80;;;;;;;30.93;24.21;101133.03;128590;1101;62083;-77
2021/06/01 12:46:05;;;;;;;2.73;1.60;;;;;;;32.33;23.18;101127.13;128562;1101;61933;-78
2021/06/01 13:20:09;;;;;;;3.15;1.70;;;;;;;39.22;15.39;101083.70;128661;1101;62178;-76
2021/06/01 13:36:41;;;;;;;2.33;1.53;;;;;;;40.52;14.00;101066.53;128717;1101;63230;-76
2021/06/01 13:39:26;;;;;;;2.13;1.73;;;;;;;40.32;15.03;101051.11;128374;1102;62286;-76
2021/06/01 13:47:20;;;;;;;2.80;2.00;;;;;;;38.71;16.36;101053.94;128713;1101;61961;-76
2021/06/01 13:49:50;;;;;;;2.53;1.47;;;;;;;38.09;16.54;101054.30;128727;1101;62915;-76
2021/06/01 14:00:12;;;;;;;2.80;1.73;;;;;;;36.60;17.90;101056.77;128470;1104;61978;-79
2021/06/01 14:11:22;;;;;;;3.13;1.73;;;;;;;37.75;17.54;101041.84;128756;1102;62323;-78
2021/06/01 14:27:48;;;;;;;4.20;1.90;;;;;;;40.40;15.33;101027.00;128651;1101;62008;-78
2021/06/01 14:30:31;;;;;;;3.07;1.70;;;;;;;42.59;13.72;101022.26;128711;1101;62002;-78
2021/06/01 14:36:14;;;;;;;2.60;1.65;;;;;;;42.10;13.57;101021.45;128567;1101;61999;-79